Decoded Metar for KBKE (BAKER in OR, USA) (IATA:BKE) | Meteo·Mobile Aviation Weather
aviador You're here:

KBKE Decoded Metar

BAKER in OR, USA
Report Time2018-08-22 04:53:00
UTC Time2018-08-22 05:38:11
Flight Rules vfr VFR
Wind130° at 05 kt
W.Decomp.*RWY 13: 4.8 kt HW 1.4 kt LCW
RWY 08: 4.1 kt HW 2.8 kt RCW
RWY 17: 2.8 kt HW 4.1 kt LCW
W.Rank130° ranks 20
Current wind is below 130° avg. (7.1)
Visibility9999 m
Phenomena:N/A
Clouds:N/A
Expected CloudBase > 2,800 ft AGL from Temp-Dew spread
CeilingNone
Temp15°C (ISA +7)
Dew Point08°C (63% RH)
AAT12.7°C
QNH1019 hPa
Density Alt4,094 ft
Elevation3,360 ft
Report Wrong Elevation
Raw Report
KBKE 220453Z AUTO 13005KT 9SM CLR 15/08 A3009 RMK AO2 SLP174
T01500083=

Extra information for KBKE:More info

Metar Taf Metar & Taf Last 4 Metars F.Rules Stats Wind Profile Meteogram Temp Stats Airport Information Weather charts Add Link Nearby VenuesMetar ALERT Operation Metar Decoded Social comments

AIRNAV info for KBKE